sensor_id;sensor_type;location;lat;lon;timestamp;P1;durP1;ratioP1;P2;durP2;ratioP2
76157;SDS011;64907;51.574;6.502;2023-01-01T00:00:57;7.75;;;5.13;;
76157;SDS011;64907;51.574;6.502;2023-01-01T00:03:25;6.73;;;4.60;;
76157;SDS011;64907;51.574;6.502;2023-01-01T00:05:50;7.85;;;5.07;;
76157;SDS011;64907;51.574;6.502;2023-01-01T00:10:45;15.82;;;5.95;;
76157;SDS011;64907;51.574;6.502;2023-01-01T00:13:11;10.40;;;5.68;;
76157;SDS011;64907;51.574;6.502;2023-01-01T00:15:37;14.68;;;6.95;;
76157;SDS011;64907;51.574;6.502;2023-01-01T00:18:03;8.50;;;5.80;;
76157;SDS011;64907;51.574;6.502;2023-01-01T00:20:28;10.85;;;5.78;;
76157;SDS011;64907;51.574;6.502;2023-01-01T00:22:53;9.13;;;5.93;;
76157;SDS011;64907;51.574;6.502;2023-01-01T00:25:18;13.02;;;5.95;;
76157;SDS011;64907;51.574;6.502;2023-01-01T00:27:44;11.18;;;5.45;;
76157;SDS011;64907;51.574;6.502;2023-01-01T00:32:39;10.55;;;5.05;;
76157;SDS011;64907;51.574;6.502;2023-01-01T00:35:05;8.70;;;5.53;;
76157;SDS011;64907;51.574;6.502;2023-01-01T00:37:31;16.20;;;5.70;;
76157;SDS011;64907;51.574;6.502;2023-01-01T00:42:25;7.93;;;5.50;;
76157;SDS011;64907;51.574;6.502;2023-01-01T00:44:52;7.53;;;5.28;;
76157;SDS011;64907;51.574;6.502;2023-01-01T00:47:19;7.45;;;4.93;;
76157;SDS011;64907;51.574;6.502;2023-01-01T00:49:44;10.05;;;4.97;;
76157;SDS011;64907;51.574;6.502;2023-01-01T00:52:12;8.77;;;5.10;;
76157;SDS011;64907;51.574;6.502;2023-01-01T00:54:37;8.25;;;4.88;;
76157;SDS011;64907;51.574;6.502;2023-01-01T00:57:02;6.20;;;4.23;;
76157;SDS011;64907;51.574;6.502;2023-01-01T00:59:28;11.02;;;4.63;;
76157;SDS011;64907;51.574;6.502;2023-01-01T01:01:53;7.80;;;5.10;;
76157;SDS011;64907;51.574;6.502;2023-01-01T01:04:18;8.93;;;4.53;;
76157;SDS011;64907;51.574;6.502;2023-01-01T01:06:43;8.75;;;4.40;;
76157;SDS011;64907;51.574;6.502;2023-01-01T01:09:08;7.20;;;4.47;;
76157;SDS011;64907;51.574;6.502;2023-01-01T01:11:33;11.97;;;4.50;;
76157;SDS011;64907;51.574;6.502;2023-01-01T01:13:59;8.83;;;4.20;;
76157;SDS011;64907;51.574;6.502;2023-01-01T01:16:29;8.30;;;3.90;;
76157;SDS011;64907;51.574;6.502;2023-01-01T01:18:55;8.32;;;3.95;;
76157;SDS011;64907;51.574;6.502;2023-01-01T01:21:22;7.80;;;4.38;;
76157;SDS011;64907;51.574;6.502;2023-01-01T01:23:47;8.63;;;3.97;;
76157;SDS011;64907;51.574;6.502;2023-01-01T01:26:18;6.35;;;3.80;;
76157;SDS011;64907;51.574;6.502;2023-01-01T01:28:43;9.32;;;3.90;;
76157;SDS011;64907;51.574;6.502;2023-01-01T01:31:09;8.63;;;4.20;;
76157;SDS011;64907;51.574;6.502;2023-01-01T01:33:34;7.13;;;3.50;;
76157;SDS011;64907;51.574;6.502;2023-01-01T01:36:00;10.68;;;3.63;;
76157;SDS011;64907;51.574;6.502;2023-01-01T01:38:25;9.50;;;3.83;;
76157;SDS011;64907;51.574;6.502;2023-01-01T01:40:50;7.88;;;4.30;;
76157;SDS011;64907;51.574;6.502;2023-01-01T01:43:19;6.87;;;4.03;;
76157;SDS011;64907;51.574;6.502;2023-01-01T01:45:45;5.40;;;4.10;;
76157;SDS011;64907;51.574;6.502;2023-01-01T01:48:10;9.10;;;4.57;;
76157;SDS011;64907;51.574;6.502;2023-01-01T01:50:36;9.00;;;4.50;;
76157;SDS011;64907;51.574;6.502;2023-01-01T01:55:36;9.32;;;4.13;;
76157;SDS011;64907;51.574;6.502;2023-01-01T01:58:03;3.67;;;3.38;;
76157;SDS011;64907;51.574;6.502;2023-01-01T02:00:29;9.13;;;3.80;;
76157;SDS011;64907;51.574;6.502;2023-01-01T02:05:23;7.03;;;3.70;;
76157;SDS011;64907;51.574;6.502;2023-01-01T02:07:48;6.65;;;3.53;;
76157;SDS011;64907;51.574;6.502;2023-01-01T02:10:15;7.80;;;2.75;;
76157;SDS011;64907;51.574;6.502;2023-01-01T02:12:40;6.67;;;3.17;;
76157;SDS011;64907;51.574;6.502;2023-01-01T02:15:05;9.68;;;3.38;;
76157;SDS011;64907;51.574;6.502;2023-01-01T02:17:36;7.68;;;3.65;;
76157;SDS011;64907;51.574;6.502;2023-01-01T02:22:51;8.70;;;2.63;;
76157;SDS011;64907;51.574;6.502;2023-01-01T02:25:18;5.88;;;3.10;;
76157;SDS011;64907;51.574;6.502;2023-01-01T02:30:12;2.90;;;2.50;;
76157;SDS011;64907;51.574;6.502;2023-01-01T02:32:45;8.23;;;2.70;;
76157;SDS011;64907;51.574;6.502;2023-01-01T02:37:56;4.28;;;2.17;;
76157;SDS011;64907;51.574;6.502;2023-01-01T02:40:23;7.22;;;2.42;;
76157;SDS011;64907;51.574;6.502;2023-01-01T02:42:49;3.05;;;2.80;;
76157;SDS011;64907;51.574;6.502;2023-01-01T02:45:21;5.60;;;2.42;;
76157;SDS011;64907;51.574;6.502;2023-01-01T02:47:46;5.47;;;2.25;;
76157;SDS011;64907;51.574;6.502;2023-01-01T02:57:56;5.63;;;1.85;;
76157;SDS011;64907;51.574;6.502;2023-01-01T03:00:43;3.28;;;2.28;;
76157;SDS011;64907;51.574;6.502;2023-01-01T03:03:31;5.25;;;1.98;;
76157;SDS011;64907;51.574;6.502;2023-01-01T03:06:06;3.47;;;2.17;;
76157;SDS011;64907;51.574;6.502;2023-01-01T03:11:13;6.27;;;2.27;;
76157;SDS011;64907;51.574;6.502;2023-01-01T03:13:41;4.03;;;2.17;;
76157;SDS011;64907;51.574;6.502;2023-01-01T03:21:40;7.05;;;2.15;;
76157;SDS011;64907;51.574;6.502;2023-01-01T03:24:06;3.83;;;1.85;;
76157;SDS011;64907;51.574;6.502;2023-01-01T03:29:01;3.40;;;2.00;;
76157;SDS011;64907;51.574;6.502;2023-01-01T03:31:28;7.10;;;2.17;;
76157;SDS011;64907;51.574;6.502;2023-01-01T03:34:00;4.63;;;2.00;;
76157;SDS011;64907;51.574;6.502;2023-01-01T03:36:46;1.75;;;1.65;;
76157;SDS011;64907;51.574;6.502;2023-01-01T03:41:42;6.10;;;1.98;;
76157;SDS011;64907;51.574;6.502;2023-01-01T03:44:13;3.45;;;1.88;;
76157;SDS011;64907;51.574;6.502;2023-01-01T03:46:40;8.82;;;2.20;;
76157;SDS011;64907;51.574;6.502;2023-01-01T03:49:07;6.88;;;1.95;;
76157;SDS011;64907;51.574;6.502;2023-01-01T03:54:22;7.07;;;1.92;;
76157;SDS011;64907;51.574;6.502;2023-01-01T03:57:03;5.50;;;1.70;;
76157;SDS011;64907;51.574;6.502;2023-01-01T03:59:36;3.65;;;2.10;;
76157;SDS011;64907;51.574;6.502;2023-01-01T04:02:03;2.85;;;2.00;;
76157;SDS011;64907;51.574;6.502;2023-01-01T04:04:30;4.28;;;2.03;;
76157;SDS011;64907;51.574;6.502;2023-01-01T04:06:55;5.30;;;2.10;;
76157;SDS011;64907;51.574;6.502;2023-01-01T04:09:22;3.75;;;1.77;;
76157;SDS011;64907;51.574;6.502;2023-01-01T04:11:49;4.15;;;1.90;;
76157;SDS011;64907;51.574;6.502;2023-01-01T04:14:29;4.63;;;1.80;;
76157;SDS011;64907;51.574;6.502;2023-01-01T04:16:55;6.35;;;2.10;;
76157;SDS011;64907;51.574;6.502;2023-01-01T04:19:20;6.50;;;2.20;;
76157;SDS011;64907;51.574;6.502;2023-01-01T04:21:45;4.03;;;2.23;;
76157;SDS011;64907;51.574;6.502;2023-01-01T04:24:11;7.10;;;1.90;;
76157;SDS011;64907;51.574;6.502;2023-01-01T04:26:39;5.70;;;2.30;;
76157;SDS011;64907;51.574;6.502;2023-01-01T04:29:04;4.25;;;1.70;;
76157;SDS011;64907;51.574;6.502;2023-01-01T04:31:30;5.57;;;2.20;;
76157;SDS011;64907;51.574;6.502;2023-01-01T04:33:55;5.75;;;1.83;;
76157;SDS011;64907;51.574;6.502;2023-01-01T04:36:20;3.77;;;1.70;;
76157;SDS011;64907;51.574;6.502;2023-01-01T04:38:45;8.93;;;2.43;;
76157;SDS011;64907;51.574;6.502;2023-01-01T04:41:10;3.43;;;1.83;;
76157;SDS011;64907;51.574;6.502;2023-01-01T04:43:35;4.13;;;2.03;;
76157;SDS011;64907;51.574;6.502;2023-01-01T04:46:01;5.33;;;1.70;;
76157;SDS011;64907;51.574;6.502;2023-01-01T04:48:27;5.00;;;1.98;;
76157;SDS011;64907;51.574;6.502;2023-01-01T04:50:54;2.78;;;1.90;;
76157;SDS011;64907;51.574;6.502;2023-01-01T04:53:20;3.63;;;2.15;;
76157;SDS011;64907;51.574;6.502;2023-01-01T04:55:45;4.83;;;1.90;;
76157;SDS011;64907;51.574;6.502;2023-01-01T04:58:10;5.93;;;2.10;;
76157;SDS011;64907;51.574;6.502;2023-01-01T05:00:35;9.60;;;2.00;;
76157;SDS011;64907;51.574;6.502;2023-01-01T05:03:00;2.23;;;1.90;;
76157;SDS011;64907;51.574;6.502;2023-01-01T05:05:26;2.17;;;1.98;;
76157;SDS011;64907;51.574;6.502;2023-01-01T05:07:51;5.90;;;2.57;;
76157;SDS011;64907;51.574;6.502;2023-01-01T05:10:16;3.67;;;1.73;;
76157;SDS011;64907;51.574;6.502;2023-01-01T05:12:54;3.87;;;2.43;;
76157;SDS011;64907;51.574;6.502;2023-01-01T05:15:20;2.00;;;1.80;;
76157;SDS011;64907;51.574;6.502;2023-01-01T05:17:45;3.67;;;1.90;;
76157;SDS011;64907;51.574;6.502;2023-01-01T05:20:10;2.87;;;1.97;;
76157;SDS011;64907;51.574;6.502;2023-01-01T05:22:36;6.00;;;2.47;;
76157;SDS011;64907;51.574;6.502;2023-01-01T05:25:01;5.63;;;2.10;;
76157;SDS011;64907;51.574;6.502;2023-01-01T05:27:26;3.60;;;1.87;;
76157;SDS011;64907;51.574;6.502;2023-01-01T05:29:51;3.63;;;1.90;;
76157;SDS011;64907;51.574;6.502;2023-01-01T05:32:16;2.80;;;1.90;;
76157;SDS011;64907;51.574;6.502;2023-01-01T05:34:42;3.10;;;2.10;;
76157;SDS011;64907;51.574;6.502;2023-01-01T05:37:07;2.43;;;2.20;;
76157;SDS011;64907;51.574;6.502;2023-01-01T05:39:32;5.00;;;1.70;;
76157;SDS011;64907;51.574;6.502;2023-01-01T05:41:58;5.83;;;2.43;;
76157;SDS011;64907;51.574;6.502;2023-01-01T05:44:23;3.95;;;1.83;;
76157;SDS011;64907;51.574;6.502;2023-01-01T05:46:48;6.37;;;2.07;;
76157;SDS011;64907;51.574;6.502;2023-01-01T05:49:14;4.80;;;2.25;;
76157;SDS011;64907;51.574;6.502;2023-01-01T05:51:39;11.53;;;2.30;;
76157;SDS011;64907;51.574;6.502;2023-01-01T05:54:04;2.38;;;1.63;;
76157;SDS011;64907;51.574;6.502;2023-01-01T05:56:29;3.53;;;2.10;;
76157;SDS011;64907;51.574;6.502;2023-01-01T05:58:55;3.47;;;1.53;;
76157;SDS011;64907;51.574;6.502;2023-01-01T06:01:24;5.68;;;1.90;;
76157;SDS011;64907;51.574;6.502;2023-01-01T06:03:50;4.40;;;2.03;;
76157;SDS011;64907;51.574;6.502;2023-01-01T06:06:17;2.80;;;1.80;;
76157;SDS011;64907;51.574;6.502;2023-01-01T06:08:47;2.38;;;1.50;;
76157;SDS011;64907;51.574;6.502;2023-01-01T06:11:13;2.55;;;2.35;;
76157;SDS011;64907;51.574;6.502;2023-01-01T06:13:38;6.72;;;2.15;;
76157;SDS011;64907;51.574;6.502;2023-01-01T06:16:03;2.20;;;2.00;;
76157;SDS011;64907;51.574;6.502;2023-01-01T06:18:29;7.20;;;2.00;;
76157;SDS011;64907;51.574;6.502;2023-01-01T06:20:55;5.65;;;2.72;;
76157;SDS011;64907;51.574;6.502;2023-01-01T06:23:26;5.88;;;2.05;;
76157;SDS011;64907;51.574;6.502;2023-01-01T06:25:52;3.47;;;2.00;;
76157;SDS011;64907;51.574;6.502;2023-01-01T06:28:17;2.73;;;1.83;;
76157;SDS011;64907;51.574;6.502;2023-01-01T06:30:42;2.87;;;1.77;;
76157;SDS011;64907;51.574;6.502;2023-01-01T06:33:08;3.03;;;1.67;;
76157;SDS011;64907;51.574;6.502;2023-01-01T06:38:02;4.32;;;2.25;;
76157;SDS011;64907;51.574;6.502;2023-01-01T06:40:27;2.87;;;1.87;;
76157;SDS011;64907;51.574;6.502;2023-01-01T06:43:02;5.00;;;2.03;;
76157;SDS011;64907;51.574;6.502;2023-01-01T06:45:27;6.72;;;1.90;;
76157;SDS011;64907;51.574;6.502;2023-01-01T06:47:52;8.30;;;2.67;;
76157;SDS011;64907;51.574;6.502;2023-01-01T06:50:17;6.40;;;2.22;;
76157;SDS011;64907;51.574;6.502;2023-01-01T06:52:42;4.27;;;1.80;;
76157;SDS011;64907;51.574;6.502;2023-01-01T06:55:07;6.33;;;2.00;;
76157;SDS011;64907;51.574;6.502;2023-01-01T06:57:33;3.00;;;2.60;;
76157;SDS011;64907;51.574;6.502;2023-01-01T06:59:58;5.20;;;1.88;;
76157;SDS011;64907;51.574;6.502;2023-01-01T07:02:23;6.60;;;2.27;;
76157;SDS011;64907;51.574;6.502;2023-01-01T07:04:51;4.33;;;2.03;;
76157;SDS011;64907;51.574;6.502;2023-01-01T07:07:16;6.25;;;2.33;;
76157;SDS011;64907;51.574;6.502;2023-01-01T07:09:41;3.73;;;2.20;;
76157;SDS011;64907;51.574;6.502;2023-01-01T07:12:06;4.53;;;2.37;;
76157;SDS011;64907;51.574;6.502;2023-01-01T07:14:31;5.00;;;2.00;;
76157;SDS011;64907;51.574;6.502;2023-01-01T07:16:56;4.37;;;2.50;;
76157;SDS011;64907;51.574;6.502;2023-01-01T07:19:22;6.20;;;2.20;;
76157;SDS011;64907;51.574;6.502;2023-01-01T07:21:53;5.38;;;2.33;;
76157;SDS011;64907;51.574;6.502;2023-01-01T07:24:18;6.93;;;2.10;;
76157;SDS011;64907;51.574;6.502;2023-01-01T07:26:44;6.40;;;2.20;;
76157;SDS011;64907;51.574;6.502;2023-01-01T07:29:09;8.02;;;2.65;;
76157;SDS011;64907;51.574;6.502;2023-01-01T07:31:35;7.13;;;2.10;;
76157;SDS011;64907;51.574;6.502;2023-01-01T07:34:01;4.90;;;2.20;;
76157;SDS011;64907;51.574;6.502;2023-01-01T07:36:26;6.93;;;2.90;;
76157;SDS011;64907;51.574;6.502;2023-01-01T07:38:51;3.43;;;2.20;;
76157;SDS011;64907;51.574;6.502;2023-01-01T07:41:16;5.33;;;2.63;;
76157;SDS011;64907;51.574;6.502;2023-01-01T07:43:41;8.13;;;2.77;;
76157;SDS011;64907;51.574;6.502;2023-01-01T07:46:09;5.00;;;2.53;;
76157;SDS011;64907;51.574;6.502;2023-01-01T07:48:34;4.93;;;2.67;;
76157;SDS011;64907;51.574;6.502;2023-01-01T07:50:59;5.23;;;2.30;;
76157;SDS011;64907;51.574;6.502;2023-01-01T07:53:25;5.20;;;2.40;;
76157;SDS011;64907;51.574;6.502;2023-01-01T07:58:20;10.02;;;2.90;;
76157;SDS011;64907;51.574;6.502;2023-01-01T08:00:47;7.45;;;2.83;;
76157;SDS011;64907;51.574;6.502;2023-01-01T08:03:12;6.97;;;2.83;;
76157;SDS011;64907;51.574;6.502;2023-01-01T08:05:37;4.90;;;2.35;;
76157;SDS011;64907;51.574;6.502;2023-01-01T08:08:03;7.25;;;3.03;;
76157;SDS011;64907;51.574;6.502;2023-01-01T08:10:28;8.25;;;2.70;;
76157;SDS011;64907;51.574;6.502;2023-01-01T08:15:29;6.88;;;2.80;;
76157;SDS011;64907;51.574;6.502;2023-01-01T08:17:58;4.93;;;2.72;;
76157;SDS011;64907;51.574;6.502;2023-01-01T08:20:24;5.00;;;2.65;;
76157;SDS011;64907;51.574;6.502;2023-01-01T08:22:49;5.43;;;2.70;;
76157;SDS011;64907;51.574;6.502;2023-01-01T08:25:14;6.00;;;2.40;;
76157;SDS011;64907;51.574;6.502;2023-01-01T08:27:39;6.93;;;2.83;;
76157;SDS011;64907;51.574;6.502;2023-01-01T08:30:05;6.83;;;2.47;;
76157;SDS011;64907;51.574;6.502;2023-01-01T08:32:31;5.57;;;2.92;;
76157;SDS011;64907;51.574;6.502;2023-01-01T08:34:56;6.47;;;2.83;;
76157;SDS011;64907;51.574;6.502;2023-01-01T08:39:52;6.22;;;2.55;;
76157;SDS011;64907;51.574;6.502;2023-01-01T08:42:17;3.73;;;2.10;;
76157;SDS011;64907;51.574;6.502;2023-01-01T08:44:42;5.70;;;2.60;;
76157;SDS011;64907;51.574;6.502;2023-01-01T08:47:23;5.82;;;2.30;;
76157;SDS011;64907;51.574;6.502;2023-01-01T08:49:49;5.75;;;2.80;;
76157;SDS011;64907;51.574;6.502;2023-01-01T08:52:15;7.63;;;2.93;;
76157;SDS011;64907;51.574;6.502;2023-01-01T08:54:40;7.22;;;2.97;;
76157;SDS011;64907;51.574;6.502;2023-01-01T08:57:06;4.70;;;2.20;;
76157;SDS011;64907;51.574;6.502;2023-01-01T08:59:31;5.60;;;2.65;;
76157;SDS011;64907;51.574;6.502;2023-01-01T09:01:57;6.13;;;2.97;;
76157;SDS011;64907;51.574;6.502;2023-01-01T09:04:23;5.30;;;2.47;;
76157;SDS011;64907;51.574;6.502;2023-01-01T09:06:48;6.30;;;2.85;;
76157;SDS011;64907;51.574;6.502;2023-01-01T09:09:13;6.20;;;2.20;;
76157;SDS011;64907;51.574;6.502;2023-01-01T09:11:39;7.70;;;3.10;;
76157;SDS011;64907;51.574;6.502;2023-01-01T09:14:04;6.53;;;2.97;;
76157;SDS011;64907;51.574;6.502;2023-01-01T09:16:29;8.53;;;2.90;;
76157;SDS011;64907;51.574;6.502;2023-01-01T09:18:54;6.43;;;2.57;;
76157;SDS011;64907;51.574;6.502;2023-01-01T09:21:19;5.50;;;2.80;;
76157;SDS011;64907;51.574;6.502;2023-01-01T09:23:45;4.68;;;2.58;;
76157;SDS011;64907;51.574;6.502;2023-01-01T09:26:10;6.15;;;2.33;;
76157;SDS011;64907;51.574;6.502;2023-01-01T09:28:35;8.85;;;2.85;;
76157;SDS011;64907;51.574;6.502;2023-01-01T09:31:01;3.45;;;2.42;;
76157;SDS011;64907;51.574;6.502;2023-01-01T09:33:26;6.82;;;2.70;;
76157;SDS011;64907;51.574;6.502;2023-01-01T09:35:52;6.30;;;2.50;;
76157;SDS011;64907;51.574;6.502;2023-01-01T09:38:17;7.80;;;2.33;;
76157;SDS011;64907;51.574;6.502;2023-01-01T09:40:46;10.20;;;2.53;;
76157;SDS011;64907;51.574;6.502;2023-01-01T09:45:54;10.48;;;3.30;;
76157;SDS011;64907;51.574;6.502;2023-01-01T09:48:20;7.85;;;3.22;;
76157;SDS011;64907;51.574;6.502;2023-01-01T09:50:47;4.40;;;2.20;;
76157;SDS011;64907;51.574;6.502;2023-01-01T09:53:14;5.10;;;2.20;;
76157;SDS011;64907;51.574;6.502;2023-01-01T09:58:09;7.00;;;3.22;;
76157;SDS011;64907;51.574;6.502;2023-01-01T10:00:35;10.07;;;2.80;;
76157;SDS011;64907;51.574;6.502;2023-01-01T10:03:05;8.05;;;2.72;;
76157;SDS011;64907;51.574;6.502;2023-01-01T10:08:28;6.15;;;2.53;;
76157;SDS011;64907;51.574;6.502;2023-01-01T10:13:41;8.75;;;2.85;;
76157;SDS011;64907;51.574;6.502;2023-01-01T10:16:14;4.55;;;2.75;;
76157;SDS011;64907;51.574;6.502;2023-01-01T10:18:49;9.45;;;2.42;;
76157;SDS011;64907;51.574;6.502;2023-01-01T10:21:23;5.43;;;2.75;;
76157;SDS011;64907;51.574;6.502;2023-01-01T10:24:00;3.05;;;2.13;;
76157;SDS011;64907;51.574;6.502;2023-01-01T10:31:38;8.90;;;2.13;;
76157;SDS011;64907;51.574;6.502;2023-01-01T10:34:15;9.95;;;3.33;;
76157;SDS011;64907;51.574;6.502;2023-01-01T10:39:17;8.07;;;2.60;;
76157;SDS011;64907;51.574;6.502;2023-01-01T10:41:45;4.88;;;2.35;;
76157;SDS011;64907;51.574;6.502;2023-01-01T10:44:11;8.52;;;2.58;;
76157;SDS011;64907;51.574;6.502;2023-01-01T10:46:39;12.57;;;2.67;;
76157;SDS011;64907;51.574;6.502;2023-01-01T10:49:07;5.28;;;2.50;;
76157;SDS011;64907;51.574;6.502;2023-01-01T10:51:34;8.90;;;2.70;;
76157;SDS011;64907;51.574;6.502;2023-01-01T10:54:00;7.68;;;2.75;;
76157;SDS011;64907;51.574;6.502;2023-01-01T10:56:37;4.40;;;2.50;;
76157;SDS011;64907;51.574;6.502;2023-01-01T10:59:30;4.95;;;2.42;;
76157;SDS011;64907;51.574;6.502;2023-01-01T11:01:55;4.45;;;2.15;;
76157;SDS011;64907;51.574;6.502;2023-01-01T11:04:31;5.10;;;2.70;;
76157;SDS011;64907;51.574;6.502;2023-01-01T11:06:56;5.78;;;2.20;;
76157;SDS011;64907;51.574;6.502;2023-01-01T11:09:22;5.90;;;2.33;;
76157;SDS011;64907;51.574;6.502;2023-01-01T11:11:59;12.85;;;2.90;;
76157;SDS011;64907;51.574;6.502;2023-01-01T11:14:25;7.65;;;2.55;;
76157;SDS011;64907;51.574;6.502;2023-01-01T11:16:51;4.18;;;2.50;;
76157;SDS011;64907;51.574;6.502;2023-01-01T11:19:22;6.45;;;2.83;;
76157;SDS011;64907;51.574;6.502;2023-01-01T11:21:48;7.20;;;2.60;;
76157;SDS011;64907;51.574;6.502;2023-01-01T11:24:20;4.77;;;2.93;;
76157;SDS011;64907;51.574;6.502;2023-01-01T11:26:46;4.97;;;2.47;;
76157;SDS011;64907;51.574;6.502;2023-01-01T11:31:39;10.88;;;2.83;;
76157;SDS011;64907;51.574;6.502;2023-01-01T11:34:10;3.25;;;2.60;;
76157;SDS011;64907;51.574;6.502;2023-01-01T11:36:39;7.68;;;3.22;;
76157;SDS011;64907;51.574;6.502;2023-01-01T11:41:40;3.92;;;2.50;;
76157;SDS011;64907;51.574;6.502;2023-01-01T11:44:05;7.90;;;2.80;;
76157;SDS011;64907;51.574;6.502;2023-01-01T11:46:32;10.10;;;3.40;;
76157;SDS011;64907;51.574;6.502;2023-01-01T11:48:57;6.93;;;2.83;;
76157;SDS011;64907;51.574;6.502;2023-01-01T11:51:34;6.75;;;3.05;;
76157;SDS011;64907;51.574;6.502;2023-01-01T11:56:44;7.82;;;2.75;;
76157;SDS011;64907;51.574;6.502;2023-01-01T11:59:13;7.10;;;2.97;;
76157;SDS011;64907;51.574;6.502;2023-01-01T12:01:47;4.50;;;2.13;;
76157;SDS011;64907;51.574;6.502;2023-01-01T12:04:17;11.63;;;3.05;;
76157;SDS011;64907;51.574;6.502;2023-01-01T12:11:56;6.72;;;2.95;;
76157;SDS011;64907;51.574;6.502;2023-01-01T12:14:25;7.32;;;2.25;;
76157;SDS011;64907;51.574;6.502;2023-01-01T12:16:55;5.93;;;2.80;;
76157;SDS011;64907;51.574;6.502;2023-01-01T12:20:24;5.65;;;2.30;;
76157;SDS011;64907;51.574;6.502;2023-01-01T12:22:17;9.02;;;2.50;;
76157;SDS011;64907;51.574;6.502;2023-01-01T12:24:42;6.00;;;2.85;;
76157;SDS011;64907;51.574;6.502;2023-01-01T12:42:49;6.57;;;3.40;;
76157;SDS011;64907;51.574;6.502;2023-01-01T12:55:22;7.60;;;2.50;;
76157;SDS011;64907;51.574;6.502;2023-01-01T13:00:34;5.57;;;2.95;;
76157;SDS011;64907;51.574;6.502;2023-01-01T13:03:05;4.65;;;2.35;;
76157;SDS011;64907;51.574;6.502;2023-01-01T13:05:35;8.77;;;2.13;;
76157;SDS011;64907;51.574;6.502;2023-01-01T13:08:02;8.30;;;2.72;;
76157;SDS011;64907;51.574;6.502;2023-01-01T13:10:38;6.82;;;3.08;;
76157;SDS011;64907;51.574;6.502;2023-01-01T13:13:04;11.38;;;2.30;;
76157;SDS011;64907;51.574;6.502;2023-01-01T13:18:02;8.27;;;2.33;;
76157;SDS011;64907;51.574;6.502;2023-01-01T13:20:29;8.63;;;3.53;;
76157;SDS011;64907;51.574;6.502;2023-01-01T13:22:54;7.30;;;2.67;;
76157;SDS011;64907;51.574;6.502;2023-01-01T13:25:21;5.00;;;2.42;;
76157;SDS011;64907;51.574;6.502;2023-01-01T13:33:24;9.07;;;2.83;;
76157;SDS011;64907;51.574;6.502;2023-01-01T13:38:50;7.75;;;2.60;;
76157;SDS011;64907;51.574;6.502;2023-01-01T13:49:21;6.32;;;3.22;;
76157;SDS011;64907;51.574;6.502;2023-01-01T13:57:14;8.80;;;2.78;;
76157;SDS011;64907;51.574;6.502;2023-01-01T14:02:27;9.65;;;3.00;;
76157;SDS011;64907;51.574;6.502;2023-01-01T14:08:23;10.00;;;2.30;;
76157;SDS011;64907;51.574;6.502;2023-01-01T14:10:17;8.90;;;2.55;;
76157;SDS011;64907;51.574;6.502;2023-01-01T14:12:43;8.05;;;2.60;;
76157;SDS011;64907;51.574;6.502;2023-01-01T14:15:15;7.25;;;2.80;;
76157;SDS011;64907;51.574;6.502;2023-01-01T14:17:41;9.35;;;2.55;;
76157;SDS011;64907;51.574;6.502;2023-01-01T14:20:07;7.00;;;2.88;;
76157;SDS011;64907;51.574;6.502;2023-01-01T14:25:01;10.15;;;2.60;;
76157;SDS011;64907;51.574;6.502;2023-01-01T14:27:27;8.95;;;2.88;;
76157;SDS011;64907;51.574;6.502;2023-01-01T14:29:53;6.57;;;2.60;;
76157;SDS011;64907;51.574;6.502;2023-01-01T14:32:22;7.65;;;2.50;;
76157;SDS011;64907;51.574;6.502;2023-01-01T14:34:57;5.38;;;2.20;;
76157;SDS011;64907;51.574;6.502;2023-01-01T14:37:29;8.15;;;3.05;;
76157;SDS011;64907;51.574;6.502;2023-01-01T14:40:04;11.07;;;3.28;;
76157;SDS011;64907;51.574;6.502;2023-01-01T14:42:30;7.45;;;2.85;;
76157;SDS011;64907;51.574;6.502;2023-01-01T14:44:55;4.18;;;2.45;;
76157;SDS011;64907;51.574;6.502;2023-01-01T14:47:25;7.10;;;2.85;;
76157;SDS011;64907;51.574;6.502;2023-01-01T14:49:51;6.65;;;2.50;;
76157;SDS011;64907;51.574;6.502;2023-01-01T14:52:21;7.13;;;2.65;;
76157;SDS011;64907;51.574;6.502;2023-01-01T14:54:48;8.60;;;2.38;;
76157;SDS011;64907;51.574;6.502;2023-01-01T14:57:15;6.95;;;2.42;;
76157;SDS011;64907;51.574;6.502;2023-01-01T14:59:44;7.07;;;2.10;;
76157;SDS011;64907;51.574;6.502;2023-01-01T15:04:35;5.22;;;2.78;;
76157;SDS011;64907;51.574;6.502;2023-01-01T15:07:00;5.70;;;2.57;;
76157;SDS011;64907;51.574;6.502;2023-01-01T15:09:26;9.70;;;3.33;;
76157;SDS011;64907;51.574;6.502;2023-01-01T15:11:52;6.85;;;2.53;;
76157;SDS011;64907;51.574;6.502;2023-01-01T15:17:10;10.05;;;2.80;;
76157;SDS011;64907;51.574;6.502;2023-01-01T15:19:37;4.43;;;2.30;;
76157;SDS011;64907;51.574;6.502;2023-01-01T15:24:33;11.07;;;3.05;;
76157;SDS011;64907;51.574;6.502;2023-01-01T15:27:01;4.18;;;2.47;;
76157;SDS011;64907;51.574;6.502;2023-01-01T15:29:28;6.78;;;2.88;;
76157;SDS011;64907;51.574;6.502;2023-01-01T15:32:00;7.82;;;2.55;;
76157;SDS011;64907;51.574;6.502;2023-01-01T15:34:37;9.10;;;3.20;;
76157;SDS011;64907;51.574;6.502;2023-01-01T15:37:15;4.95;;;2.90;;
76157;SDS011;64907;51.574;6.502;2023-01-01T15:39:50;9.88;;;3.03;;
76157;SDS011;64907;51.574;6.502;2023-01-01T15:42:35;4.00;;;2.67;;
76157;SDS011;64907;51.574;6.502;2023-01-01T15:47:54;11.63;;;2.97;;
76157;SDS011;64907;51.574;6.502;2023-01-01T15:50:20;5.63;;;3.08;;
76157;SDS011;64907;51.574;6.502;2023-01-01T15:52:46;4.25;;;3.03;;
76157;SDS011;64907;51.574;6.502;2023-01-01T15:55:13;7.85;;;2.10;;
76157;SDS011;64907;51.574;6.502;2023-01-01T15:57:44;3.70;;;2.30;;
76157;SDS011;64907;51.574;6.502;2023-01-01T16:00:20;6.80;;;2.97;;
76157;SDS011;64907;51.574;6.502;2023-01-01T16:05:17;7.78;;;3.00;;
76157;SDS011;64907;51.574;6.502;2023-01-01T16:07:44;5.82;;;3.13;;
76157;SDS011;64907;51.574;6.502;2023-01-01T16:10:13;7.57;;;2.58;;
76157;SDS011;64907;51.574;6.502;2023-01-01T16:12:39;7.18;;;3.17;;
76157;SDS011;64907;51.574;6.502;2023-01-01T16:17:32;6.78;;;2.97;;
76157;SDS011;64907;51.574;6.502;2023-01-01T16:19:58;5.78;;;2.88;;
76157;SDS011;64907;51.574;6.502;2023-01-01T16:22:23;4.22;;;2.55;;
76157;SDS011;64907;51.574;6.502;2023-01-01T16:27:19;6.40;;;3.60;;
76157;SDS011;64907;51.574;6.502;2023-01-01T16:29:45;5.70;;;2.97;;
76157;SDS011;64907;51.574;6.502;2023-01-01T16:34:40;7.43;;;3.38;;
76157;SDS011;64907;51.574;6.502;2023-01-01T16:37:06;14.83;;;4.27;;
76157;SDS011;64907;51.574;6.502;2023-01-01T16:39:31;8.77;;;2.95;;
76157;SDS011;64907;51.574;6.502;2023-01-01T16:41:57;6.40;;;3.47;;
76157;SDS011;64907;51.574;6.502;2023-01-01T16:44:23;5.38;;;3.00;;
76157;SDS011;64907;51.574;6.502;2023-01-01T16:46:48;6.35;;;2.95;;
76157;SDS011;64907;51.574;6.502;2023-01-01T16:49:14;4.90;;;3.00;;
76157;SDS011;64907;51.574;6.502;2023-01-01T16:51:39;6.40;;;3.27;;
76157;SDS011;64907;51.574;6.502;2023-01-01T16:54:04;6.27;;;3.53;;
76157;SDS011;64907;51.574;6.502;2023-01-01T16:59:05;4.75;;;2.75;;
76157;SDS011;64907;51.574;6.502;2023-01-01T17:01:30;4.17;;;2.60;;
76157;SDS011;64907;51.574;6.502;2023-01-01T17:03:55;11.63;;;2.58;;
76157;SDS011;64907;51.574;6.502;2023-01-01T17:06:21;7.03;;;3.47;;
76157;SDS011;64907;51.574;6.502;2023-01-01T17:08:46;7.53;;;3.00;;
76157;SDS011;64907;51.574;6.502;2023-01-01T17:11:13;8.60;;;3.17;;
76157;SDS011;64907;51.574;6.502;2023-01-01T17:16:09;7.82;;;2.70;;
76157;SDS011;64907;51.574;6.502;2023-01-01T17:18:34;6.38;;;2.58;;
76157;SDS011;64907;51.574;6.502;2023-01-01T17:21:15;6.63;;;2.90;;
76157;SDS011;64907;51.574;6.502;2023-01-01T17:23:41;6.88;;;3.40;;
76157;SDS011;64907;51.574;6.502;2023-01-01T17:26:17;6.15;;;2.85;;
76157;SDS011;64907;51.574;6.502;2023-01-01T17:28:43;9.50;;;3.20;;
76157;SDS011;64907;51.574;6.502;2023-01-01T17:31:13;18.00;;;6.57;;
76157;SDS011;64907;51.574;6.502;2023-01-01T17:33:39;6.68;;;5.70;;
76157;SDS011;64907;51.574;6.502;2023-01-01T17:36:04;11.18;;;5.32;;
76157;SDS011;64907;51.574;6.502;2023-01-01T17:38:32;15.13;;;10.52;;